createdAt,value
2023-04-19T00:02:25.601Z,36.50
2023-04-19T00:04:53.661Z,43.10
2023-04-19T00:07:21.339Z,41.65
2023-04-19T00:09:48.924Z,40.80
2023-04-19T00:12:17.124Z,49.83
2023-04-19T00:14:44.936Z,36.85
2023-04-19T00:17:12.626Z,43.17
2023-04-19T00:19:40.482Z,39.53
2023-04-19T00:22:08.116Z,36.10
2023-04-19T00:24:35.957Z,35.78
2023-04-19T00:27:03.940Z,37.60
2023-04-19T00:31:59.690Z,40.13
2023-04-19T00:34:27.252Z,46.75
2023-04-19T00:36:58.043Z,40.75
2023-04-19T00:39:25.959Z,44.05
2023-04-19T00:41:53.515Z,48.13
2023-04-19T00:44:21.193Z,39.22
2023-04-19T00:46:48.860Z,41.60
2023-04-19T00:49:18.449Z,35.92
2023-04-19T00:51:47.131Z,38.72
2023-04-19T00:54:15.715Z,39.83
2023-04-19T00:56:45.051Z,40.42
2023-04-19T00:59:14.802Z,38.15
2023-04-19T01:01:43.156Z,37.95
2023-04-19T01:04:11.132Z,38.35
2023-04-19T01:06:40.386Z,40.55
2023-04-19T01:09:08.045Z,38.30
2023-04-19T01:11:35.675Z,42.13
2023-04-19T01:14:03.341Z,40.67
2023-04-19T01:16:30.912Z,35.90
2023-04-19T01:18:58.433Z,36.40
2023-04-19T01:21:29.460Z,36.92
2023-04-19T01:23:57.198Z,38.22
2023-04-19T01:26:25.089Z,39.55
2023-04-19T01:28:52.900Z,42.45
2023-04-19T01:31:20.883Z,37.95
2023-04-19T01:33:48.512Z,35.30
2023-04-19T01:36:16.190Z,35.30
2023-04-19T01:38:44.186Z,38.72
2023-04-19T01:41:11.721Z,32.97
2023-04-19T01:43:39.277Z,41.65
2023-04-19T01:46:06.854Z,40.47
2023-04-19T01:48:34.372Z,44.33
2023-04-19T01:51:02.167Z,38.33
2023-04-19T01:53:29.689Z,40.03
2023-04-19T01:55:57.183Z,34.95
2023-04-19T01:58:27.304Z,41.80
2023-04-19T02:00:55.475Z,37.53
2023-04-19T02:03:23.302Z,34.03
2023-04-19T02:05:50.949Z,34.08
2023-04-19T02:08:21.033Z,36.88
2023-04-19T02:10:48.606Z,31.63
2023-04-19T02:13:16.367Z,42.60
2023-04-19T02:15:43.938Z,38.70
2023-04-19T02:18:11.900Z,36.47
2023-04-19T02:20:40.936Z,35.55
2023-04-19T02:23:08.763Z,38.63
2023-04-19T02:25:36.610Z,38.28
2023-04-19T02:28:04.484Z,39.40
2023-04-19T02:30:32.698Z,36.88
2023-04-19T02:33:00.285Z,44.88
2023-04-19T02:35:28.192Z,41.38
2023-04-19T02:38:03.280Z,37.20
2023-04-19T02:40:31.365Z,42.83
2023-04-19T02:42:59.970Z,34.55
2023-04-19T02:45:28.686Z,38.47
2023-04-19T02:47:56.467Z,40.33
2023-04-19T02:50:24.718Z,41.47
2023-04-19T02:52:53.745Z,43.42
2023-04-19T02:55:23.542Z,37.25
2023-04-19T02:58:00.164Z,35.05
2023-04-19T03:00:28.254Z,38.25
2023-04-19T03:03:05.420Z,43.42
2023-04-19T03:05:34.428Z,47.25
2023-04-19T03:08:01.977Z,45.65
2023-04-19T03:10:29.578Z,46.05
2023-04-19T03:12:57.171Z,46.72
2023-04-19T03:15:25.281Z,45.13
2023-04-19T03:17:53.126Z,37.00
2023-04-19T03:20:22.572Z,40.15
2023-04-19T03:22:51.766Z,41.47
2023-04-19T03:25:19.479Z,40.85
2023-04-19T03:27:53.663Z,43.75
2023-04-19T03:30:35.762Z,60.50
2023-04-19T03:33:03.554Z,41.83
2023-04-19T03:35:32.500Z,44.30
2023-04-19T03:38:08.603Z,40.95
2023-04-19T03:40:38.789Z,51.75
2023-04-19T03:43:07.931Z,44.38
2023-04-19T03:45:36.386Z,45.67
2023-04-19T03:48:04.093Z,44.47
2023-04-19T03:50:32.391Z,49.92
2023-04-19T03:53:00.640Z,44.97
2023-04-19T03:55:28.288Z,50.33
2023-04-19T03:57:55.836Z,48.63
2023-04-19T04:00:35.843Z,47.33
2023-04-19T04:03:04.247Z,45.03
2023-04-19T04:05:32.194Z,43.55
2023-04-19T04:08:01.601Z,39.15
2023-04-19T04:10:29.736Z,51.08
2023-04-19T04:15:31.414Z,51.85
2023-04-19T04:18:00.050Z,45.20
2023-04-19T04:20:27.789Z,44.17
2023-04-19T04:23:02.005Z,51.63
2023-04-19T04:25:33.040Z,46.90
2023-04-19T04:28:06.972Z,47.42
2023-04-19T04:30:35.044Z,46.75
2023-04-19T04:33:04.565Z,34.15
2023-04-19T04:38:17.612Z,56.55
2023-04-19T04:40:55.697Z,53.15
2023-04-19T04:43:24.485Z,49.40
2023-04-19T04:45:52.412Z,47.97
2023-04-19T04:48:20.612Z,50.47
2023-04-19T04:50:48.219Z,53.38
2023-04-19T04:53:16.073Z,47.65
2023-04-19T04:55:46.472Z,47.92
2023-04-19T04:58:15.456Z,42.25
2023-04-19T05:03:21.013Z,52.75
2023-04-19T05:05:55.202Z,46.25
2023-04-19T05:08:26.979Z,53.60
2023-04-19T05:10:59.325Z,51.22
2023-04-19T05:13:31.022Z,44.38
2023-04-19T05:16:00.488Z,47.78
2023-04-19T05:20:57.532Z,51.80
2023-04-19T05:23:28.885Z,50.55
2023-04-19T05:25:57.737Z,47.83
2023-04-19T05:28:28.078Z,41.88
2023-04-19T05:31:09.148Z,50.20
2023-04-19T05:33:45.237Z,38.38
2023-04-19T05:36:12.854Z,56.17
2023-04-19T05:38:40.756Z,51.90
2023-04-19T05:41:08.543Z,52.42
2023-04-19T05:43:36.715Z,50.92
2023-04-19T05:46:06.174Z,50.63
2023-04-19T05:51:20.226Z,57.65
2023-04-19T05:54:03.338Z,47.85
2023-04-19T06:01:29.012Z,41.25
2023-04-19T06:03:56.970Z,46.28
2023-04-19T06:06:25.759Z,48.85
2023-04-19T06:11:31.458Z,42.97
2023-04-19T06:14:06.422Z,51.80
2023-04-19T06:16:35.491Z,48.28
2023-04-19T06:19:03.931Z,50.67
2023-04-19T06:21:33.081Z,47.00
2023-04-19T06:24:01.073Z,49.10
2023-04-19T06:26:28.613Z,40.05
2023-04-19T06:28:56.545Z,37.35
2023-04-19T06:31:24.379Z,45.92
2023-04-19T06:33:52.429Z,59.15
2023-04-19T06:36:20.348Z,43.17
2023-04-19T06:38:48.149Z,42.15
2023-04-19T06:41:16.388Z,51.28
2023-04-19T06:46:14.682Z,52.63
2023-04-19T06:48:42.600Z,43.53
2023-04-19T06:51:10.128Z,52.83
2023-04-19T06:53:38.322Z,49.53
2023-04-19T06:56:06.868Z,55.25
2023-04-19T06:58:35.278Z,47.75
2023-04-19T07:01:04.718Z,43.70
2023-04-19T07:03:32.980Z,46.30
2023-04-19T07:08:42.339Z,45.35
2023-04-19T07:11:16.455Z,60.95
2023-04-19T07:13:44.558Z,49.47
2023-04-19T07:18:40.777Z,44.00
2023-04-19T07:21:08.542Z,50.00
2023-04-19T07:23:36.282Z,53.15
2023-04-19T07:26:04.095Z,52.20
2023-04-19T07:28:31.864Z,54.67
2023-04-19T07:31:01.014Z,52.55
2023-04-19T07:33:28.654Z,48.75
2023-04-19T07:35:57.056Z,48.38
2023-04-19T07:38:24.987Z,46.35
2023-04-19T07:40:52.794Z,55.35
2023-04-19T07:43:21.136Z,37.75
2023-04-19T07:45:49.243Z,47.40
2023-04-19T07:48:16.690Z,48.97
2023-04-19T07:50:44.316Z,48.45
2023-04-19T07:53:12.123Z,45.35
2023-04-19T07:55:39.700Z,49.28
2023-04-19T07:58:07.425Z,42.72
2023-04-19T08:00:36.760Z,55.78
2023-04-19T08:03:04.723Z,49.47
2023-04-19T08:05:33.038Z,41.08
2023-04-19T08:08:00.782Z,42.03
2023-04-19T08:10:30.431Z,39.53
2023-04-19T08:13:05.318Z,56.28
2023-04-19T08:18:05.849Z,46.88
2023-04-19T08:23:10.276Z,46.20
2023-04-19T08:25:41.983Z,44.08
2023-04-19T08:28:09.957Z,50.67
2023-04-19T08:30:37.513Z,42.42
2023-04-19T08:33:05.549Z,45.05
2023-04-19T08:35:36.133Z,40.95
2023-04-19T08:38:04.924Z,45.85
2023-04-19T08:40:33.271Z,44.53
2023-04-19T08:43:06.432Z,42.50
2023-04-19T08:45:34.558Z,47.42
2023-04-19T08:48:04.067Z,45.42
2023-04-19T08:50:38.804Z,48.78
2023-04-19T08:53:24.730Z,57.30
2023-04-19T08:56:12.852Z,44.78
2023-04-19T08:59:03.827Z,40.95
2023-04-19T09:06:39.652Z,47.08
2023-04-19T09:09:37.178Z,41.40
2023-04-19T09:12:18.532Z,48.53
2023-04-19T09:15:00.581Z,47.15
2023-04-19T09:17:31.848Z,50.65
2023-04-19T09:19:59.915Z,47.00
2023-04-19T09:27:34.935Z,34.15
2023-04-19T09:30:04.433Z,42.58
2023-04-19T09:32:47.612Z,30.33
2023-04-19T09:35:15.855Z,41.33
2023-04-19T09:40:24.856Z,38.47
2023-04-19T09:48:07.965Z,44.17
2023-04-19T09:50:50.324Z,32.20
2023-04-19T09:53:22.924Z,37.53
2023-04-19T09:56:00.201Z,39.75
2023-04-19T09:58:41.748Z,38.20
2023-04-19T10:01:19.035Z,36.83
2023-04-19T10:03:50.502Z,32.45
2023-04-19T10:08:53.538Z,37.90
2023-04-19T10:11:22.966Z,33.90
2023-04-19T10:13:53.853Z,29.58
2023-04-19T10:16:21.923Z,30.38
2023-04-19T10:18:50.857Z,31.58
2023-04-19T10:21:20.073Z,30.02
2023-04-19T10:23:48.192Z,34.63
2023-04-19T10:31:14.541Z,32.65
2023-04-19T10:33:42.544Z,41.13
2023-04-19T10:38:47.950Z,29.90
2023-04-19T10:41:18.217Z,28.10
2023-04-19T10:43:57.795Z,32.03
2023-04-19T10:46:26.127Z,32.60
2023-04-19T10:48:59.124Z,32.97
2023-04-19T10:51:38.853Z,26.92
2023-04-19T10:54:08.394Z,29.55
2023-04-19T10:56:35.957Z,27.92
2023-04-19T10:59:11.231Z,32.78
2023-04-19T11:02:09.001Z,34.05
2023-04-19T11:04:36.836Z,35.75
2023-04-19T11:09:39.520Z,28.23
2023-04-19T11:12:16.011Z,31.35
2023-04-19T11:14:46.364Z,29.73
2023-04-19T11:17:27.333Z,30.25
2023-04-19T11:20:00.302Z,29.35
2023-04-19T11:22:33.583Z,31.60
2023-04-19T11:25:17.406Z,29.25
2023-04-19T11:27:53.596Z,33.65
2023-04-19T11:32:56.922Z,34.55
2023-04-19T11:35:27.866Z,32.30
2023-04-19T11:37:56.922Z,30.50
2023-04-19T11:40:28.424Z,31.55
2023-04-19T11:43:00.625Z,24.33
2023-04-19T11:45:38.241Z,32.13
2023-04-19T11:48:16.312Z,31.20
2023-04-19T11:50:45.640Z,30.17
2023-04-19T11:53:17.331Z,32.53
2023-04-19T11:55:47.491Z,31.25
2023-04-19T11:58:29.068Z,32.72
2023-04-19T12:01:08.094Z,27.50
2023-04-19T12:03:45.956Z,32.15
2023-04-19T12:06:25.752Z,31.02
2023-04-19T12:08:54.849Z,28.83
2023-04-19T12:11:26.887Z,34.90
2023-04-19T12:14:10.336Z,26.88
2023-04-19T12:16:38.646Z,30.55
2023-04-19T12:19:18.085Z,33.17
2023-04-19T12:21:47.514Z,25.88
2023-04-19T12:24:17.118Z,24.80
2023-04-19T12:26:56.390Z,29.42
2023-04-19T12:29:24.287Z,29.08
2023-04-19T12:31:52.024Z,24.45
2023-04-19T12:34:19.718Z,27.92
2023-04-19T12:36:47.674Z,32.17
2023-04-19T12:39:15.607Z,26.95
2023-04-19T12:41:43.376Z,23.88
2023-04-19T12:44:11.032Z,20.55
2023-04-19T12:46:39.062Z,27.40
2023-04-19T12:49:06.697Z,28.67
2023-04-19T12:51:35.055Z,29.08
2023-04-19T12:54:02.664Z,26.20
2023-04-19T12:56:30.646Z,21.17
2023-04-19T13:01:25.834Z,23.23
2023-04-19T13:03:55.408Z,22.23
2023-04-19T13:06:25.020Z,24.50
2023-04-19T13:08:53.015Z,20.55
2023-04-19T13:11:23.708Z,24.15
2023-04-19T13:13:52.689Z,19.98
2023-04-19T13:16:21.010Z,21.40
2023-04-19T13:18:48.792Z,25.10
2023-04-19T13:21:16.790Z,30.17
2023-04-19T13:26:12.886Z,24.42
2023-04-19T13:28:42.279Z,19.48
2023-04-19T13:31:10.330Z,23.13
2023-04-19T13:33:38.231Z,17.27
2023-04-19T13:36:06.604Z,23.75
2023-04-19T13:38:34.413Z,23.45
2023-04-19T13:41:03.664Z,23.60
2023-04-19T13:43:31.543Z,29.65
2023-04-19T13:50:57.267Z,23.15
2023-04-19T13:53:26.598Z,19.50
2023-04-19T13:55:54.334Z,16.30
2023-04-19T13:58:22.044Z,20.98
2023-04-19T14:03:17.566Z,19.08
2023-04-19T14:05:45.544Z,19.55
2023-04-19T14:15:35.658Z,15.27
2023-04-19T14:18:03.338Z,15.63
2023-04-19T14:20:31.282Z,20.10
2023-04-19T14:23:00.389Z,15.65
2023-04-19T14:25:28.419Z,16.83
2023-04-19T14:27:56.021Z,17.90
2023-04-19T14:30:26.282Z,16.25
2023-04-19T14:32:54.035Z,14.30
2023-04-19T14:35:22.072Z,10.88
2023-04-19T14:37:49.626Z,17.92
2023-04-19T14:40:18.534Z,14.73
2023-04-19T14:42:46.098Z,15.15
2023-04-19T14:45:13.755Z,20.42
2023-04-19T14:47:41.596Z,15.70
2023-04-19T14:52:36.889Z,15.18
2023-04-19T14:55:04.924Z,11.93
2023-04-19T14:57:32.785Z,10.98
2023-04-19T15:02:29.348Z,13.48
2023-04-19T15:07:24.710Z,11.55
2023-04-19T15:09:52.515Z,12.10
2023-04-19T15:14:47.481Z,10.35
2023-04-19T15:22:11.294Z,11.13
2023-04-19T15:24:38.954Z,7.95
2023-04-19T15:27:06.886Z,9.65
2023-04-19T15:29:35.669Z,12.60
2023-04-19T15:32:04.665Z,6.22
2023-04-19T15:34:32.545Z,6.82
2023-04-19T15:37:02.625Z,11.32
2023-04-19T15:39:30.235Z,9.00
2023-04-19T15:41:58.896Z,6.10
2023-04-19T15:44:26.680Z,10.95
2023-04-19T15:46:54.462Z,13.32
2023-04-19T15:51:49.353Z,8.40
2023-04-19T15:54:16.867Z,7.75
2023-04-19T15:56:44.430Z,11.35
2023-04-19T15:59:11.967Z,11.75
2023-04-19T16:04:10.099Z,13.05
2023-04-19T16:06:37.831Z,10.82
2023-04-19T16:09:06.592Z,12.60
2023-04-19T16:11:34.286Z,6.07
2023-04-19T16:14:01.805Z,7.40
2023-04-19T16:16:33.016Z,7.05
2023-04-19T16:19:00.917Z,7.60
2023-04-19T16:23:56.603Z,5.60
2023-04-19T16:28:52.386Z,7.65
2023-04-19T16:31:20.203Z,4.32
2023-04-19T16:33:47.835Z,10.65
2023-04-19T16:36:15.589Z,9.68
2023-04-19T16:41:11.562Z,7.25
2023-04-19T16:43:39.281Z,7.30
2023-04-19T16:48:35.958Z,7.13
2023-04-19T16:51:03.855Z,7.38
2023-04-19T16:53:32.285Z,6.30
2023-04-19T16:56:00.425Z,6.82
2023-04-19T16:58:28.310Z,6.22
2023-04-19T17:00:57.033Z,8.63
2023-04-19T17:03:24.958Z,13.35
2023-04-19T17:05:52.610Z,10.98
2023-04-19T17:08:21.783Z,7.45
2023-04-19T17:10:49.516Z,11.38
2023-04-19T17:15:44.591Z,7.60
2023-04-19T17:18:12.312Z,5.70
2023-04-19T17:23:07.634Z,6.53
2023-04-19T17:30:30.590Z,9.90
2023-04-19T17:32:58.359Z,7.55
2023-04-19T17:35:26.239Z,8.02
2023-04-19T17:40:21.502Z,9.63
2023-04-19T17:47:44.983Z,11.55
2023-04-19T17:50:13.566Z,8.88
2023-04-19T17:52:41.302Z,9.13
2023-04-19T17:57:37.170Z,12.75
2023-04-19T18:02:38.532Z,8.77
2023-04-19T18:05:07.730Z,9.40
2023-04-19T18:07:41.548Z,10.98
2023-04-19T18:10:10.907Z,8.02
2023-04-19T18:12:38.622Z,12.48
2023-04-19T18:15:07.298Z,8.82
2023-04-19T18:17:36.338Z,6.95
2023-04-19T18:20:06.043Z,6.32
2023-04-19T18:22:33.880Z,12.48
2023-04-19T18:27:31.128Z,8.50
2023-04-19T18:32:55.125Z,9.70
2023-04-19T18:35:22.763Z,9.30
2023-04-19T18:37:50.391Z,6.40
2023-04-19T18:40:19.073Z,8.93
2023-04-19T18:42:46.906Z,8.57
2023-04-19T18:45:14.752Z,12.52
2023-04-19T18:47:42.740Z,11.77
2023-04-19T18:50:11.173Z,7.20
2023-04-19T18:52:38.870Z,6.65
2023-04-19T18:55:07.479Z,10.25
2023-04-19T18:57:35.380Z,7.47
2023-04-19T19:02:36.183Z,8.20
2023-04-19T19:05:07.345Z,9.02
2023-04-19T19:07:37.499Z,8.82
2023-04-19T19:12:39.753Z,7.43
2023-04-19T19:15:08.214Z,9.50
2023-04-19T19:17:35.923Z,9.93
2023-04-19T19:20:05.429Z,7.13
2023-04-19T19:22:34.028Z,8.57
2023-04-19T19:25:04.733Z,11.20
2023-04-19T19:27:32.446Z,6.85
2023-04-19T19:30:00.673Z,10.98
2023-04-19T19:32:30.378Z,7.55
2023-04-19T19:35:02.920Z,6.40
2023-04-19T19:37:33.250Z,9.73
2023-04-19T19:40:04.167Z,8.40
2023-04-19T19:42:33.968Z,7.75
2023-04-19T19:45:02.441Z,10.50
2023-04-19T19:47:33.005Z,9.52
2023-04-19T19:52:34.623Z,6.10
2023-04-19T19:58:18.616Z,8.95
2023-04-19T20:00:42.013Z,9.05
2023-04-19T20:03:07.189Z,7.88
2023-04-19T20:05:35.758Z,14.75
2023-04-19T20:08:09.931Z,8.05
2023-04-19T20:10:39.551Z,7.18
2023-04-19T20:13:07.461Z,8.43
2023-04-19T20:18:05.752Z,9.13
2023-04-19T20:20:33.553Z,10.13
2023-04-19T20:23:01.166Z,9.73
2023-04-19T20:25:31.203Z,6.85
2023-04-19T20:28:02.489Z,6.93
2023-04-19T20:30:31.541Z,9.52
2023-04-19T20:35:28.701Z,9.00
2023-04-19T20:38:02.870Z,9.10
2023-04-19T20:40:31.893Z,7.28
2023-04-19T20:42:59.493Z,9.00
2023-04-19T20:45:28.723Z,7.57
2023-04-19T20:47:59.940Z,7.03
2023-04-19T20:50:29.892Z,7.25
2023-04-19T20:53:08.288Z,7.60
2023-04-19T20:55:36.141Z,7.05
2023-04-19T20:58:04.640Z,2.25
2023-04-19T21:00:36.356Z,8.98
2023-04-19T21:03:05.283Z,6.65
2023-04-19T21:05:33.484Z,7.25
2023-04-19T21:08:01.692Z,7.18
2023-04-19T21:10:29.859Z,6.53
2023-04-19T21:15:24.875Z,9.32
2023-04-19T21:17:52.849Z,6.72
2023-04-19T21:22:51.017Z,9.23
2023-04-19T21:25:18.846Z,6.22
2023-04-19T21:27:46.450Z,8.48
2023-04-19T21:30:14.146Z,9.10
2023-04-19T21:32:42.253Z,8.38
2023-04-19T21:37:57.090Z,10.48
2023-04-19T21:40:25.036Z,13.13
2023-04-19T21:42:52.807Z,6.68
2023-04-19T21:45:20.836Z,7.22
2023-04-19T21:47:48.522Z,7.38
2023-04-19T21:50:16.979Z,9.27
2023-04-19T21:52:44.835Z,7.30
2023-04-19T21:55:12.756Z,8.05
2023-04-19T21:57:40.613Z,12.48
2023-04-19T22:00:11.723Z,8.65
2023-04-19T22:02:41.694Z,7.88
2023-04-19T22:10:09.162Z,7.63
2023-04-19T22:12:45.139Z,10.50
2023-04-19T22:15:19.340Z,7.80
2023-04-19T22:17:47.036Z,9.73
2023-04-19T22:20:14.868Z,6.93
2023-04-19T22:22:42.378Z,11.10
2023-04-19T22:25:10.257Z,10.77
2023-04-19T22:27:37.846Z,7.82
2023-04-19T22:30:06.546Z,7.80
2023-04-19T22:32:34.939Z,5.18
2023-04-19T22:37:29.800Z,9.68
2023-04-19T22:39:57.646Z,214.10
2023-04-19T22:42:25.588Z,8.57
2023-04-19T22:44:53.029Z,10.20
2023-04-19T22:47:21.217Z,12.10
2023-04-19T22:49:49.580Z,8.65
2023-04-19T22:52:17.705Z,12.13
2023-04-19T22:54:45.576Z,10.88
2023-04-19T22:57:13.164Z,7.63
2023-04-19T22:59:40.992Z,19.58
2023-04-19T23:02:08.964Z,7.43
2023-04-19T23:04:38.038Z,12.27
2023-04-19T23:07:06.258Z,8.25
2023-04-19T23:09:33.756Z,8.82
2023-04-19T23:12:01.271Z,8.13
2023-04-19T23:14:29.226Z,8.93
2023-04-19T23:16:57.614Z,9.98
2023-04-19T23:19:25.410Z,9.13
2023-04-19T23:21:52.993Z,7.38
2023-04-19T23:24:20.537Z,11.73
2023-04-19T23:26:48.513Z,10.27
2023-04-19T23:29:16.477Z,12.85
2023-04-19T23:31:44.546Z,10.45
2023-04-19T23:34:12.160Z,9.23
2023-04-19T23:36:39.768Z,11.70
2023-04-19T23:39:07.302Z,13.65
2023-04-19T23:41:34.906Z,11.45
2023-04-19T23:44:02.408Z,9.73
2023-04-19T23:46:30.073Z,12.55
2023-04-19T23:48:57.780Z,11.18
2023-04-19T23:51:25.316Z,12.88
2023-04-19T23:53:53.105Z,12.52
2023-04-19T23:56:21.245Z,13.98
